createdAt,value
2022-10-26T00:01:53.655Z,15.43
2022-10-26T00:07:15.605Z,17.63
2022-10-26T00:12:37.437Z,16.98
2022-10-26T00:17:59.803Z,15.85
2022-10-26T00:23:21.655Z,18.58
2022-10-26T00:28:43.493Z,18.80
2022-10-26T00:34:06.180Z,20.35
2022-10-26T00:39:28.011Z,19.20
2022-10-26T00:44:49.753Z,21.77
2022-10-26T00:50:33.380Z,19.35
2022-10-26T00:55:56.494Z,22.35
2022-10-26T01:01:18.409Z,19.73
2022-10-26T01:06:42.019Z,18.25
2022-10-26T01:12:04.194Z,17.25
2022-10-26T01:17:39.293Z,20.38
2022-10-26T01:23:07.105Z,20.90
2022-10-26T01:28:59.996Z,19.67
2022-10-26T01:34:32.859Z,18.70
2022-10-26T01:40:04.379Z,21.48
2022-10-26T01:45:28.121Z,19.77
2022-10-26T01:50:54.574Z,21.65
2022-10-26T01:56:21.324Z,19.33
2022-10-26T02:02:01.897Z,22.30
2022-10-26T02:07:34.565Z,19.20
2022-10-26T02:13:02.177Z,19.45
2022-10-26T02:19:00.921Z,19.67
2022-10-26T02:29:43.954Z,24.25
2022-10-26T02:35:06.277Z,22.45
2022-10-26T02:40:29.394Z,22.15
2022-10-26T02:45:56.392Z,23.42
2022-10-26T02:51:25.176Z,26.83
2022-10-26T02:57:01.710Z,23.38
2022-10-26T03:07:45.696Z,23.58
2022-10-26T03:13:07.711Z,27.27
2022-10-26T03:18:29.532Z,26.15
2022-10-26T03:23:51.463Z,22.88
2022-10-26T03:29:13.275Z,22.45
2022-10-26T03:34:35.125Z,23.25
2022-10-26T03:39:56.916Z,21.80
2022-10-26T03:45:18.767Z,22.80
2022-10-26T03:50:40.574Z,24.50
2022-10-26T03:56:02.574Z,27.23
2022-10-26T04:01:24.466Z,25.98
2022-10-26T04:12:13.216Z,22.05
2022-10-26T04:17:35.102Z,29.40
2022-10-26T04:23:01.468Z,21.23
2022-10-26T04:28:23.304Z,26.25
2022-10-26T04:33:45.151Z,27.27
2022-10-26T04:39:06.993Z,25.13
2022-10-26T04:44:29.184Z,28.25
2022-10-26T04:49:51.045Z,25.77
2022-10-26T04:55:12.911Z,28.70
2022-10-26T05:00:35.002Z,28.08
2022-10-26T05:05:59.276Z,24.63
2022-10-26T05:11:21.077Z,25.25
2022-10-26T05:16:42.887Z,24.75
2022-10-26T05:22:04.854Z,23.80
2022-10-26T05:27:26.767Z,24.08
2022-10-26T05:32:58.825Z,25.05
2022-10-26T05:38:20.712Z,26.98
2022-10-26T05:43:42.544Z,21.13
2022-10-26T05:49:04.379Z,22.77
2022-10-26T05:54:26.253Z,22.02
2022-10-26T05:59:48.363Z,25.55
2022-10-26T06:05:11.511Z,20.67
2022-10-26T06:10:33.837Z,19.95
2022-10-26T06:16:07.602Z,21.38
2022-10-26T06:21:51.143Z,17.30
2022-10-26T06:27:18.619Z,19.88
2022-10-26T06:32:46.469Z,18.17
2022-10-26T06:38:14.485Z,17.05
2022-10-26T06:43:36.649Z,16.33
2022-10-26T06:49:08.221Z,19.63
2022-10-26T06:54:48.400Z,15.00
2022-10-26T07:05:53.721Z,17.85
2022-10-26T07:11:15.558Z,17.08
2022-10-26T07:16:37.580Z,18.13
2022-10-26T07:21:59.512Z,18.30
2022-10-26T07:27:21.344Z,17.75
2022-10-26T07:32:44.327Z,18.55
2022-10-26T07:38:07.107Z,18.58
2022-10-26T07:43:29.021Z,17.27
2022-10-26T07:48:50.844Z,23.70
2022-10-26T07:54:12.701Z,20.67
2022-10-26T07:59:34.503Z,19.88
2022-10-26T08:04:56.325Z,18.83
2022-10-26T08:10:18.164Z,20.23
2022-10-26T08:15:40.181Z,20.15
2022-10-26T08:21:11.339Z,18.67
2022-10-26T08:26:34.289Z,18.77
2022-10-26T08:31:56.163Z,20.20
2022-10-26T08:37:18.039Z,18.50
2022-10-26T08:42:44.995Z,18.83
2022-10-26T08:48:15.871Z,16.63
2022-10-26T08:53:50.767Z,14.93
2022-10-26T08:59:24.519Z,15.50
2022-10-26T09:04:46.602Z,17.30
2022-10-26T09:16:22.253Z,17.00
2022-10-26T09:21:55.953Z,22.17
2022-10-26T09:27:27.973Z,21.38
2022-10-26T09:32:54.455Z,22.58
2022-10-26T09:38:25.967Z,20.05
2022-10-26T09:43:55.000Z,20.52
2022-10-26T09:49:18.542Z,18.83
2022-10-26T09:54:40.638Z,21.63
2022-10-26T10:00:02.676Z,17.50
2022-10-26T10:16:36.947Z,17.60
2022-10-26T10:22:00.621Z,16.95
2022-10-26T10:27:23.226Z,17.40
2022-10-26T10:32:45.092Z,17.25
2022-10-26T10:38:12.482Z,20.33
2022-10-26T10:43:34.409Z,17.45
2022-10-26T10:49:03.602Z,12.52
2022-10-26T10:54:31.186Z,13.85
2022-10-26T11:00:02.088Z,15.70
2022-10-26T11:05:57.921Z,17.23
2022-10-26T11:11:31.842Z,15.63
2022-10-26T11:17:06.785Z,14.48
2022-10-26T11:22:35.157Z,16.65
2022-10-26T11:28:06.029Z,15.98
2022-10-26T11:34:13.666Z,15.25
2022-10-26T11:39:47.051Z,18.05
2022-10-26T11:45:19.890Z,18.58
2022-10-26T11:50:50.481Z,15.65
2022-10-26T11:56:30.664Z,16.23
2022-10-26T12:02:14.404Z,15.35
2022-10-26T12:07:40.281Z,15.82
2022-10-26T12:13:27.030Z,13.60
2022-10-26T12:18:57.457Z,17.02
2022-10-26T12:24:30.734Z,17.48
2022-10-26T12:30:15.223Z,15.90
2022-10-26T12:35:44.013Z,17.67
2022-10-26T12:41:05.871Z,20.40
2022-10-26T12:46:27.623Z,15.57
2022-10-26T12:51:49.639Z,14.88
2022-10-26T12:57:49.904Z,14.20
2022-10-26T13:03:34.718Z,12.57
2022-10-26T13:09:01.902Z,11.55
2022-10-26T13:14:38.610Z,12.98
2022-10-26T13:20:03.835Z,15.25
2022-10-26T13:25:28.541Z,12.50
2022-10-26T13:30:50.451Z,15.30
2022-10-26T13:36:32.209Z,14.75
2022-10-26T13:41:55.510Z,12.10
2022-10-26T13:47:50.190Z,13.27
2022-10-26T13:53:41.181Z,14.73
2022-10-26T13:59:08.377Z,14.15
2022-10-26T14:04:30.365Z,14.65
2022-10-26T14:09:54.443Z,10.80
2022-10-26T14:15:18.638Z,12.35
2022-10-26T14:20:40.480Z,12.82
2022-10-26T14:26:02.814Z,11.55
2022-10-26T14:31:29.594Z,13.10
2022-10-26T14:36:57.417Z,17.88
2022-10-26T14:42:40.174Z,15.57
2022-10-26T14:48:04.306Z,14.75
2022-10-26T14:53:33.873Z,18.30
2022-10-26T14:58:56.762Z,14.32
2022-10-26T15:04:36.730Z,16.40
2022-10-26T15:09:58.621Z,17.42
2022-10-26T15:15:23.269Z,14.60
2022-10-26T15:20:50.009Z,14.38
2022-10-26T15:26:12.585Z,14.77
2022-10-26T15:31:34.584Z,15.65
2022-10-26T15:36:56.613Z,12.73
2022-10-26T15:42:18.721Z,17.63
2022-10-26T15:47:40.616Z,19.63
2022-10-26T15:53:09.523Z,18.10
2022-10-26T15:58:32.099Z,18.05
2022-10-26T16:03:54.546Z,15.90
2022-10-26T16:09:18.089Z,21.25
2022-10-26T16:15:04.287Z,14.55
2022-10-26T16:20:24.682Z,17.77
2022-10-26T16:25:46.817Z,16.58
2022-10-26T16:31:12.071Z,18.23
2022-10-26T16:36:34.649Z,18.45
2022-10-26T16:41:56.538Z,17.60
2022-10-26T16:47:18.382Z,19.50
2022-10-26T16:52:40.566Z,20.83
2022-10-26T16:58:02.386Z,18.70
2022-10-26T17:03:24.342Z,19.23
2022-10-26T17:08:46.558Z,20.73
2022-10-26T17:14:08.584Z,20.17
2022-10-26T17:19:30.415Z,20.58
2022-10-26T17:24:52.232Z,20.85
2022-10-26T17:30:14.242Z,18.30
2022-10-26T17:35:36.310Z,31.13
2022-10-26T17:41:06.330Z,20.75
2022-10-26T17:46:28.236Z,21.90
2022-10-26T17:51:50.038Z,21.70
2022-10-26T17:57:11.834Z,19.77
2022-10-26T18:02:33.767Z,22.08
2022-10-26T18:07:55.784Z,24.35
2022-10-26T18:13:17.920Z,27.55
2022-10-26T18:18:40.992Z,22.33
2022-10-26T18:24:03.157Z,26.50
2022-10-26T18:29:24.999Z,31.48
2022-10-26T18:34:46.798Z,30.80
2022-10-26T18:40:09.304Z,29.75
2022-10-26T18:45:31.397Z,25.77
2022-10-26T18:50:53.220Z,25.50
2022-10-26T18:56:17.558Z,31.10
2022-10-26T19:01:39.735Z,32.67
2022-10-26T19:07:01.766Z,38.70
2022-10-26T19:12:23.664Z,33.80
2022-10-26T19:17:45.534Z,45.28
2022-10-26T19:23:07.484Z,34.40
2022-10-26T19:28:29.918Z,33.72
2022-10-26T19:33:52.178Z,40.00
2022-10-26T19:39:17.894Z,38.03
2022-10-26T19:44:39.841Z,40.77
2022-10-26T19:50:02.946Z,38.67
2022-10-26T19:55:24.777Z,46.05
2022-10-26T20:00:46.849Z,38.03
2022-10-26T20:06:10.394Z,37.17
2022-10-26T20:11:32.390Z,36.55
2022-10-26T20:16:57.177Z,41.58
2022-10-26T20:22:19.020Z,34.05
2022-10-26T20:27:40.842Z,33.38
2022-10-26T20:33:02.758Z,29.90
2022-10-26T20:38:25.505Z,30.13
2022-10-26T20:43:47.824Z,35.28
2022-10-26T20:49:09.967Z,31.52
2022-10-26T20:54:55.628Z,35.08
2022-10-26T21:00:18.110Z,32.37
2022-10-26T21:05:46.023Z,36.83
2022-10-26T21:11:07.937Z,36.25
2022-10-26T21:16:29.805Z,39.00
2022-10-26T21:21:51.787Z,39.67
2022-10-26T21:27:13.619Z,36.58
2022-10-26T21:32:35.600Z,36.45
2022-10-26T21:37:57.415Z,40.95
2022-10-26T21:43:19.351Z,38.80
2022-10-26T21:48:41.863Z,41.35
2022-10-26T21:54:04.283Z,37.80
2022-10-26T21:59:26.250Z,45.88
2022-10-26T22:04:48.086Z,43.83
2022-10-26T22:10:10.962Z,40.05
2022-10-26T22:15:33.458Z,39.47
2022-10-26T22:20:58.729Z,38.45
2022-10-26T22:26:22.860Z,51.67
2022-10-26T22:31:44.715Z,36.25
2022-10-26T22:37:06.655Z,42.42
2022-10-26T22:42:28.481Z,38.08
2022-10-26T22:47:50.394Z,47.25
2022-10-26T22:53:12.328Z,44.53
2022-10-26T22:58:35.378Z,33.15
2022-10-26T23:03:57.218Z,36.42
2022-10-26T23:09:19.040Z,39.85
2022-10-26T23:14:40.880Z,35.55
2022-10-26T23:20:02.754Z,34.67
2022-10-26T23:25:24.833Z,37.92
2022-10-26T23:30:47.511Z,41.70
2022-10-26T23:36:09.428Z,47.45
2022-10-26T23:41:31.293Z,44.40
2022-10-26T23:46:53.332Z,46.75
2022-10-26T23:52:15.586Z,45.58
2022-10-26T23:57:39.346Z,115.63
